Aeroporto :







RITROVATECI SU...

 
LOGIN :

Iscrizione | Disclaimer

   EN    FR    IT 

 









Sommario :    VFR   VFR Marginale   IFR   IFR Intensivo   IFR Molto Intensivo
Visibilità : 
Base nubi : 
>= 8 km
>= 3000ft
5 / 8 km
1000 / 3000 ft
1500m / 5 km
500 / 1000 ft
800 / 1500m
200 / 500 ft
< 800m
< 200 ft
Simboli :   Temporali  Nebbia  Neve Forte  Precipitazioni Forti  Vento > 20 kt






- Altitudine del aeroporto : 193 ft
- Codice IATA : ZBF


CZBF - Bathurst

ULTIMO METAR :
  • 040134Z AUTO 03010G19KT 360V070 9SM -SN OVC012 M01/M03 A3025 RMK SLP248

METARs OBSOLETI :
  • 040100Z AUTO 05011G19KT 9SM OVC014 M01/M03 A3025 RMK SLP249
  • 040000Z AUTO 06011G21KT 9SM OVC012 M01/M03 A3025 RMK SLP250
  • 032347Z AUTO 04012G21KT 9SM OVC010 M01/M03 A3025 RMK SLP249
  • 032315Z AUTO 05011G24KT 360V080 6SM -SN BKN010 OVC014 M01/M02 A3025 RMK SLP247
  • 032300Z AUTO 06013G23KT 4SM -SN BKN010 OVC014 M01/M02 A3024 RMK SLP246

TAF TAF CZBF
Valido dal 03 a 20 ore il 04 a 03 ore UTC


031938Z 0320/0403 04015G25KT 2SM -SN OVC008
TEMPO 0320/0403 6SM -SN BR OVC012
PROB30 0400/0403 2SM -FZDZ BR RMK FCST BASED ON AUTO OBS. NXT FCST WILL BE ISSUED AT 040845Z



MetMap, La meteo Aeronautica in un colpo d'occhio ! - Copyright ORBIFLY Dicembre 2007 - Disclaimer

ORBIFLY MET'MAP TEAM :

Programmazione e sviluppo : Alexandra Zaïnal
Concezione : Baudouin d'Aumeries
Aiuto per la programmazione : Marc-Olivier Méhu
Supporto tecnico e logistico : Manuel Goepfert
Aiuto per la traduzione : Arnaldo La Scala

Contatto : metmap@orbifly.com




FONTI E CREDITI :

   NOAA